createdAt,value
2019-04-16T00:01:49.862Z,6.90
2019-04-16T00:04:50.514Z,7.00
2019-04-16T00:07:40.028Z,7.00
2019-04-16T00:10:31.569Z,6.80
2019-04-16T00:13:16.746Z,7.30
2019-04-16T00:15:46.031Z,6.90
2019-04-16T00:18:18.437Z,7.23
2019-04-16T00:21:11.338Z,7.50
2019-04-16T00:24:18.510Z,6.57
2019-04-16T00:26:59.930Z,6.63
2019-04-16T00:29:32.954Z,7.20
2019-04-16T00:32:07.842Z,7.00
2019-04-16T00:34:35.637Z,7.13
2019-04-16T00:37:04.953Z,7.13
2019-04-16T00:39:34.271Z,6.97
2019-04-16T00:42:03.694Z,7.33
2019-04-16T00:44:32.956Z,7.37
2019-04-16T00:47:02.264Z,7.10
2019-04-16T00:49:31.542Z,6.93
2019-04-16T00:52:05.896Z,6.93
2019-04-16T00:54:33.348Z,7.33
2019-04-16T00:57:02.711Z,6.83
2019-04-16T00:59:34.101Z,6.50
2019-04-16T01:02:05.807Z,6.70
2019-04-16T01:04:35.138Z,6.37
2019-04-16T01:07:04.582Z,7.20
2019-04-16T01:09:33.934Z,6.77
2019-04-16T01:12:03.226Z,7.37
2019-04-16T01:14:32.529Z,7.00
2019-04-16T01:17:04.849Z,6.97
2019-04-16T01:19:32.858Z,7.13
2019-04-16T01:22:02.353Z,7.10
2019-04-16T01:24:34.409Z,6.67
2019-04-16T01:27:03.809Z,8.27
2019-04-16T01:29:34.660Z,7.00
2019-04-16T01:32:21.473Z,7.60
2019-04-16T01:35:28.184Z,6.90
2019-04-16T01:38:20.557Z,7.03
2019-04-16T01:41:04.171Z,6.90
2019-04-16T01:43:33.485Z,7.27
2019-04-16T01:46:02.890Z,7.17
2019-04-16T01:48:32.159Z,6.93
2019-04-16T01:51:01.446Z,7.93
2019-04-16T01:53:30.712Z,7.03
2019-04-16T01:56:00.043Z,7.10
2019-04-16T01:58:33.642Z,7.73
2019-04-16T02:01:01.860Z,7.70
2019-04-16T02:03:31.161Z,7.03
2019-04-16T02:06:00.439Z,6.57
2019-04-16T02:08:31.098Z,7.20
2019-04-16T02:11:00.761Z,6.87
2019-04-16T02:13:30.067Z,7.83
2019-04-16T02:15:59.611Z,6.43
2019-04-16T02:18:29.797Z,6.70
2019-04-16T02:20:59.933Z,7.17
2019-04-16T02:23:29.346Z,6.67
2019-04-16T02:25:58.684Z,6.83
2019-04-16T02:28:28.952Z,6.83
2019-04-16T02:31:00.898Z,7.37
2019-04-16T02:33:30.165Z,6.90
2019-04-16T02:36:00.897Z,6.97
2019-04-16T02:38:30.169Z,6.60
2019-04-16T02:40:59.633Z,6.90
2019-04-16T02:43:28.906Z,6.13
2019-04-16T02:45:59.764Z,6.90
2019-04-16T02:48:29.177Z,7.13
2019-04-16T02:51:09.435Z,6.67
2019-04-16T02:54:14.147Z,6.87
2019-04-16T02:57:01.220Z,7.03
2019-04-16T02:59:34.051Z,6.90
2019-04-16T03:02:37.815Z,6.40
2019-04-16T03:05:12.861Z,7.30
2019-04-16T03:07:50.903Z,7.10
2019-04-16T03:10:20.248Z,6.90
2019-04-16T03:12:52.162Z,6.43
2019-04-16T03:15:41.393Z,7.33
2019-04-16T03:18:11.697Z,6.80
2019-04-16T03:20:42.028Z,7.30
2019-04-16T03:23:11.331Z,7.60
2019-04-16T03:25:41.361Z,7.53
2019-04-16T03:28:12.285Z,7.50
2019-04-16T03:30:42.887Z,6.60
2019-04-16T03:33:14.335Z,7.17
2019-04-16T03:35:44.506Z,7.60
2019-04-16T03:38:16.341Z,6.93
2019-04-16T03:40:45.648Z,8.37
2019-04-16T03:43:16.171Z,7.63
2019-04-16T03:45:45.472Z,6.87
2019-04-16T03:48:14.770Z,7.60
2019-04-16T03:50:44.105Z,6.70
2019-04-16T03:53:16.367Z,7.70
2019-04-16T03:55:44.397Z,6.97
2019-04-16T03:58:13.677Z,7.53
2019-04-16T04:00:44.182Z,7.63
2019-04-16T04:03:13.978Z,6.93
2019-04-16T04:05:45.049Z,6.93
2019-04-16T04:08:17.383Z,7.57
2019-04-16T04:10:45.402Z,7.00
2019-04-16T04:13:18.348Z,7.90
2019-04-16T04:15:45.744Z,7.60
2019-04-16T04:18:15.040Z,7.50
2019-04-16T04:20:44.308Z,7.30
2019-04-16T04:23:13.605Z,8.53
2019-04-16T04:25:42.908Z,8.00
2019-04-16T04:28:12.221Z,7.77
2019-04-16T04:30:41.480Z,7.47
2019-04-16T04:33:15.943Z,6.60
2019-04-16T04:35:45.216Z,7.93
2019-04-16T04:38:15.746Z,8.33
2019-04-16T04:40:50.493Z,8.33
2019-04-16T04:43:16.169Z,8.43
2019-04-16T04:45:45.635Z,7.60
2019-04-16T04:48:14.905Z,8.37
2019-04-16T04:50:44.339Z,7.77
2019-04-16T04:53:15.621Z,8.17
2019-04-16T04:55:45.857Z,8.53
2019-04-16T04:58:17.443Z,9.17
2019-04-16T05:00:48.705Z,8.10
2019-04-16T05:03:38.885Z,8.07
2019-04-16T05:06:10.052Z,8.20
2019-04-16T05:08:40.445Z,7.77
2019-04-16T05:11:15.854Z,8.17
2019-04-16T05:13:45.693Z,7.77
2019-04-16T05:16:15.920Z,8.37
2019-04-16T05:18:47.852Z,7.33
2019-04-16T05:21:19.512Z,7.87
2019-04-16T05:23:57.049Z,8.43
2019-04-16T05:26:23.477Z,8.30
2019-04-16T05:28:53.152Z,7.93
2019-04-16T05:31:25.601Z,8.37
2019-04-16T05:33:54.703Z,8.00
2019-04-16T05:36:24.441Z,8.03
2019-04-16T05:38:55.734Z,8.73
2019-04-16T05:41:25.547Z,8.37
2019-04-16T05:43:55.446Z,8.53
2019-04-16T05:46:25.194Z,8.30
2019-04-16T05:48:54.935Z,8.27
2019-04-16T05:51:24.231Z,8.00
2019-04-16T05:53:55.831Z,8.93
2019-04-16T05:56:29.737Z,8.97
2019-04-16T05:58:59.633Z,8.17
2019-04-16T06:01:45.518Z,8.63
2019-04-16T06:04:15.247Z,8.33
2019-04-16T06:06:45.736Z,8.00
2019-04-16T06:09:15.025Z,7.57
2019-04-16T06:11:44.605Z,8.70
2019-04-16T06:14:49.577Z,8.53
2019-04-16T06:17:50.349Z,8.63
2019-04-16T06:20:28.249Z,9.30
2019-04-16T06:23:12.192Z,7.80
2019-04-16T06:26:02.731Z,9.17
2019-04-16T06:28:54.941Z,8.63
2019-04-16T06:31:42.822Z,8.50
2019-04-16T06:34:37.090Z,8.33
2019-04-16T06:37:14.628Z,8.20
2019-04-16T06:39:54.366Z,8.20
2019-04-16T06:42:32.796Z,7.30
2019-04-16T06:45:05.946Z,8.67
2019-04-16T06:48:03.260Z,9.20
2019-04-16T06:51:03.774Z,8.37
2019-04-16T06:53:56.698Z,8.07
2019-04-16T06:56:52.685Z,8.40
2019-04-16T06:59:39.795Z,7.93
2019-04-16T07:02:25.397Z,8.50
2019-04-16T07:05:19.443Z,8.50
2019-04-16T07:08:06.552Z,7.83
2019-04-16T07:10:44.743Z,8.27
2019-04-16T07:13:11.403Z,7.97
2019-04-16T07:15:40.870Z,8.40
2019-04-16T07:18:11.721Z,8.20
2019-04-16T07:20:42.291Z,9.15
2019-04-16T07:23:12.030Z,7.75
2019-04-16T07:25:43.105Z,8.13
2019-04-16T07:28:34.842Z,8.15
2019-04-16T07:31:33.415Z,8.35
2019-04-16T07:34:11.007Z,8.68
2019-04-16T07:37:00.867Z,8.70
2019-04-16T07:39:51.111Z,8.43
2019-04-16T07:42:28.192Z,8.88
2019-04-16T07:45:22.549Z,7.85
2019-04-16T07:48:06.197Z,7.90
2019-04-16T07:50:53.019Z,8.63
2019-04-16T07:53:48.122Z,8.20
2019-04-16T07:56:20.572Z,8.37
2019-04-16T07:58:49.845Z,8.20
2019-04-16T08:01:19.281Z,8.13
2019-04-16T08:03:48.616Z,8.78
2019-04-16T08:06:17.884Z,8.78
2019-04-16T08:08:47.343Z,8.58
2019-04-16T08:11:16.640Z,8.15
2019-04-16T08:13:47.006Z,9.00
2019-04-16T08:16:17.761Z,7.97
2019-04-16T08:18:51.042Z,8.03
2019-04-16T08:21:22.729Z,8.75
2019-04-16T08:24:00.993Z,7.83
2019-04-16T08:26:30.290Z,8.28
2019-04-16T08:28:59.584Z,8.25
2019-04-16T08:31:29.832Z,8.45
2019-04-16T08:33:59.128Z,8.48
2019-04-16T08:36:28.518Z,7.80
2019-04-16T08:38:57.811Z,8.20
2019-04-16T08:41:27.138Z,8.50
2019-04-16T08:43:56.448Z,8.05
2019-04-16T08:46:28.220Z,8.10
2019-04-16T08:48:56.760Z,8.05
2019-04-16T08:51:30.883Z,8.20
2019-04-16T08:53:57.105Z,8.70
2019-04-16T08:56:26.404Z,8.45
2019-04-16T08:59:00.038Z,8.10
2019-04-16T09:01:30.712Z,7.35
2019-04-16T09:04:02.685Z,8.25
2019-04-16T09:06:32.528Z,9.65
2019-04-16T09:09:15.543Z,8.55
2019-04-16T09:11:48.475Z,8.15
2019-04-16T09:14:20.976Z,7.87
2019-04-16T09:17:11.852Z,8.40
2019-04-16T09:19:44.107Z,8.08
2019-04-16T09:22:16.811Z,7.85
2019-04-16T09:25:14.042Z,8.43
2019-04-16T09:27:45.775Z,8.30
2019-04-16T09:30:40.223Z,7.80
2019-04-16T09:33:19.597Z,8.10
2019-04-16T09:36:07.868Z,8.18
2019-04-16T09:38:45.587Z,7.45
2019-04-16T09:41:25.265Z,7.47
2019-04-16T09:43:57.892Z,8.70
2019-04-16T09:46:49.607Z,7.90
2019-04-16T09:49:04.717Z,7.45
2019-04-16T09:51:32.139Z,7.75
2019-04-16T09:54:02.975Z,7.33
2019-04-16T09:56:32.849Z,7.92
2019-04-16T09:59:31.068Z,8.15
2019-04-16T10:02:32.973Z,7.67
2019-04-16T10:05:02.577Z,8.38
2019-04-16T10:07:30.665Z,7.67
2019-04-16T10:10:00.409Z,8.68
2019-04-16T10:12:29.726Z,8.25
2019-04-16T10:15:00.617Z,7.92
2019-04-16T10:17:30.364Z,8.23
2019-04-16T10:19:59.709Z,7.67
2019-04-16T10:22:29.009Z,8.73
2019-04-16T10:25:15.488Z,8.53
2019-04-16T10:27:49.598Z,8.77
2019-04-16T10:30:24.867Z,8.30
2019-04-16T10:32:54.213Z,8.17
2019-04-16T10:35:23.528Z,7.97
2019-04-16T10:37:52.912Z,7.73
2019-04-16T10:40:31.978Z,7.80
2019-04-16T10:43:20.420Z,8.00
2019-04-16T10:45:58.602Z,8.13
2019-04-16T10:48:46.825Z,8.07
2019-04-16T10:51:38.110Z,7.93
2019-04-16T10:54:36.871Z,7.30
2019-04-16T10:57:38.308Z,8.43
2019-04-16T11:00:24.951Z,7.53
2019-04-16T11:02:59.532Z,8.03
2019-04-16T11:05:43.301Z,8.60
2019-04-16T11:08:14.594Z,7.10
2019-04-16T11:10:46.479Z,7.57
2019-04-16T11:13:24.300Z,7.60
2019-04-16T11:15:54.679Z,8.03
2019-04-16T11:18:23.926Z,8.27
2019-04-16T11:20:53.244Z,8.77
2019-04-16T11:23:22.543Z,8.13
2019-04-16T11:25:51.811Z,8.57
2019-04-16T11:28:21.193Z,7.67
2019-04-16T11:30:53.144Z,7.63
2019-04-16T11:33:22.486Z,7.37
2019-04-16T11:35:53.154Z,6.60
2019-04-16T11:38:22.792Z,7.37
2019-04-16T11:40:52.063Z,8.00
2019-04-16T11:43:21.351Z,8.20
2019-04-16T11:45:50.690Z,8.47
2019-04-16T11:48:19.963Z,7.47
2019-04-16T11:50:49.233Z,8.23
2019-04-16T11:53:20.843Z,8.00
2019-04-16T11:55:50.196Z,7.67
2019-04-16T11:58:38.444Z,8.03
2019-04-16T12:01:26.712Z,8.00
2019-04-16T12:04:03.248Z,7.43
2019-04-16T12:06:48.641Z,8.13
2019-04-16T12:09:35.810Z,8.40
2019-04-16T12:12:15.188Z,8.60
2019-04-16T12:15:21.741Z,8.30
2019-04-16T12:18:21.917Z,8.63
2019-04-16T12:21:05.994Z,8.23
2019-04-16T12:23:51.377Z,8.33
2019-04-16T12:26:35.134Z,7.53
2019-04-16T12:29:14.935Z,8.03
2019-04-16T12:32:04.321Z,7.77
2019-04-16T12:35:10.129Z,7.67
2019-04-16T12:37:58.126Z,6.70
2019-04-16T12:40:59.626Z,7.93
2019-04-16T12:43:51.623Z,7.63
2019-04-16T12:46:37.661Z,7.37
2019-04-16T12:49:25.940Z,8.17
2019-04-16T12:52:22.995Z,7.33
2019-04-16T12:55:31.767Z,7.67
2019-04-16T12:58:13.283Z,7.93
2019-04-16T13:01:03.191Z,7.70
2019-04-16T13:03:46.573Z,7.97
2019-04-16T13:06:27.013Z,7.10
2019-04-16T13:09:26.234Z,8.07
2019-04-16T13:12:32.784Z,7.93
2019-04-16T13:15:23.965Z,8.43
2019-04-16T13:18:11.498Z,8.50
2019-04-16T13:21:05.160Z,8.33
2019-04-16T13:23:56.165Z,8.07
2019-04-16T13:26:28.148Z,7.70
2019-04-16T13:28:57.838Z,8.17
2019-04-16T13:31:27.120Z,7.63
2019-04-16T13:33:57.566Z,8.30
2019-04-16T13:36:28.096Z,8.03
2019-04-16T13:39:20.849Z,7.90
2019-04-16T13:41:51.943Z,7.33
2019-04-16T13:44:22.701Z,7.40
2019-04-16T13:46:51.978Z,7.77
2019-04-16T13:49:31.421Z,7.13
2019-04-16T13:51:58.076Z,7.53
2019-04-16T13:54:43.211Z,7.17
2019-04-16T13:57:18.922Z,7.50
2019-04-16T14:00:07.175Z,7.03
2019-04-16T14:02:47.921Z,7.60
2019-04-16T14:05:17.597Z,7.57
2019-04-16T14:07:46.940Z,6.70
2019-04-16T14:10:16.502Z,7.13
2019-04-16T14:12:45.835Z,7.70
2019-04-16T14:15:31.272Z,8.17
2019-04-16T14:17:52.932Z,6.93
2019-04-16T14:20:19.059Z,7.57
2019-04-16T14:22:53.308Z,7.20
2019-04-16T14:25:19.583Z,7.20
2019-04-16T14:27:48.986Z,8.10
2019-04-16T14:30:23.426Z,7.97
2019-04-16T14:32:52.860Z,9.53
2019-04-16T14:35:33.330Z,7.63
2019-04-16T14:37:58.728Z,8.03
2019-04-16T14:40:28.883Z,7.83
2019-04-16T14:42:58.651Z,7.70
2019-04-16T14:45:57.491Z,7.97
2019-04-16T14:48:19.596Z,7.67
2019-04-16T14:50:48.962Z,7.93
2019-04-16T14:53:31.783Z,6.90
2019-04-16T14:56:10.674Z,6.63
2019-04-16T14:59:02.081Z,7.03
2019-04-16T15:01:37.627Z,7.93
2019-04-16T15:04:24.906Z,6.43
2019-04-16T15:07:23.809Z,6.47
2019-04-16T15:10:15.776Z,6.77
2019-04-16T15:13:04.047Z,6.83
2019-04-16T15:16:08.437Z,6.47
2019-04-16T15:18:33.836Z,6.93
2019-04-16T15:21:20.716Z,6.53
2019-04-16T15:24:13.194Z,7.10
2019-04-16T15:27:08.652Z,7.50
2019-04-16T15:30:06.256Z,5.87
2019-04-16T15:33:07.586Z,6.60
2019-04-16T15:35:43.739Z,6.93
2019-04-16T15:38:30.398Z,6.10
2019-04-16T15:41:14.452Z,6.80
2019-04-16T15:44:03.108Z,7.07
2019-04-16T15:46:51.772Z,7.37
2019-04-16T15:49:28.435Z,8.17
2019-04-16T15:52:09.809Z,7.17
2019-04-16T15:55:13.927Z,6.17
2019-04-16T15:58:07.806Z,7.50
2019-04-16T16:01:04.535Z,7.40
2019-04-16T16:04:02.481Z,7.37
2019-04-16T16:06:33.328Z,6.80
2019-04-16T16:09:08.885Z,7.23
2019-04-16T16:11:48.044Z,6.13
2019-04-16T16:14:18.277Z,6.50
2019-04-16T16:17:06.286Z,7.17
2019-04-16T16:19:35.899Z,9.47
2019-04-16T16:22:05.348Z,6.67
2019-04-16T16:24:41.765Z,6.27
2019-04-16T16:27:07.562Z,6.53
2019-04-16T16:29:40.741Z,6.57
2019-04-16T16:32:10.134Z,6.73
2019-04-16T16:34:39.900Z,6.97
2019-04-16T16:37:10.709Z,7.80
2019-04-16T16:39:40.090Z,7.40
2019-04-16T16:42:10.910Z,6.47
2019-04-16T16:44:40.250Z,6.90
2019-04-16T16:47:31.659Z,7.37
2019-04-16T16:50:01.184Z,7.30
2019-04-16T16:52:50.859Z,7.73
2019-04-16T16:55:32.030Z,7.00
2019-04-16T16:58:08.983Z,7.37
2019-04-16T17:01:05.080Z,8.13
2019-04-16T17:04:13.033Z,7.00
2019-04-16T17:06:42.458Z,6.57
2019-04-16T17:09:23.114Z,7.63
2019-04-16T17:11:55.705Z,9.23
2019-04-16T17:14:23.569Z,12.97
2019-04-16T17:16:52.882Z,9.10
2019-04-16T17:19:22.174Z,7.10
2019-04-16T17:21:51.674Z,6.87
2019-04-16T17:24:21.550Z,6.67
2019-04-16T17:26:51.181Z,6.87
2019-04-16T17:29:20.562Z,6.33
2019-04-16T17:31:50.947Z,7.07
2019-04-16T17:34:20.288Z,7.23
2019-04-16T17:36:49.668Z,9.30
2019-04-16T17:39:32.947Z,7.37
2019-04-16T17:42:05.759Z,7.43
2019-04-16T17:44:55.125Z,6.77
2019-04-16T17:47:46.499Z,9.93
2019-04-16T17:50:26.686Z,12.73
2019-04-16T17:53:11.723Z,8.87
2019-04-16T17:55:59.238Z,8.80
2019-04-16T17:58:36.551Z,10.00
2019-04-16T18:01:30.983Z,6.33
2019-04-16T18:04:11.619Z,12.83
2019-04-16T18:07:03.267Z,6.37
2019-04-16T18:09:39.563Z,6.17
2019-04-16T18:12:26.595Z,6.60
2019-04-16T18:15:19.034Z,13.30
2019-04-16T18:18:01.872Z,8.13
2019-04-16T18:21:05.477Z,6.20
2019-04-16T18:24:00.788Z,7.57
2019-04-16T18:26:52.618Z,6.20
2019-04-16T18:29:25.747Z,7.00
2019-04-16T18:32:04.362Z,7.97
2019-04-16T18:34:56.901Z,7.17
2019-04-16T18:37:50.030Z,5.77
2019-04-16T18:40:28.064Z,5.77
2019-04-16T18:43:05.365Z,5.33
2019-04-16T18:45:59.980Z,5.87
2019-04-16T18:48:32.577Z,4.80
2019-04-16T18:51:02.076Z,5.37
2019-04-16T18:53:33.287Z,4.63
2019-04-16T18:56:02.627Z,6.53
2019-04-16T18:58:31.925Z,6.10
2019-04-16T19:01:05.191Z,5.17
2019-04-16T19:03:34.452Z,6.00
2019-04-16T19:06:03.975Z,5.70
2019-04-16T19:08:41.469Z,6.60
2019-04-16T19:11:05.816Z,5.80
2019-04-16T19:13:35.157Z,4.37
2019-04-16T19:16:04.589Z,5.27
2019-04-16T19:18:34.521Z,5.20
2019-04-16T19:21:04.416Z,4.90
2019-04-16T19:23:35.803Z,4.87
2019-04-16T19:26:08.335Z,4.80
2019-04-16T19:28:40.425Z,5.13
2019-04-16T19:31:11.926Z,5.13
2019-04-16T19:33:43.421Z,4.80
2019-04-16T19:36:15.102Z,5.20
2019-04-16T19:38:46.552Z,5.40
2019-04-16T19:41:23.188Z,5.37
2019-04-16T19:43:51.294Z,4.90
2019-04-16T19:46:22.534Z,5.23
2019-04-16T19:48:57.048Z,5.80
2019-04-16T19:51:32.160Z,4.53
2019-04-16T19:54:11.593Z,5.50
2019-04-16T19:56:43.147Z,5.23
2019-04-16T19:59:14.587Z,4.97
2019-04-16T20:01:46.239Z,5.17
2019-04-16T20:04:17.539Z,5.40
2019-04-16T20:06:49.272Z,5.27
2019-04-16T20:09:20.855Z,4.87
2019-04-16T20:11:55.374Z,5.83
2019-04-16T20:14:26.171Z,5.20
2019-04-16T20:16:57.379Z,5.57
2019-04-16T20:19:28.961Z,4.93
2019-04-16T20:22:00.334Z,5.83
2019-04-16T20:24:30.661Z,6.43
2019-04-16T20:27:04.919Z,6.17
2019-04-16T20:29:33.207Z,5.53
2019-04-16T20:32:02.738Z,4.77
2019-04-16T20:34:32.749Z,4.47
2019-04-16T20:37:02.470Z,5.60
2019-04-16T20:39:33.263Z,5.77
2019-04-16T20:42:03.005Z,5.53
2019-04-16T20:44:32.666Z,5.13
2019-04-16T20:47:07.986Z,5.13
2019-04-16T20:49:37.206Z,5.07
2019-04-16T20:52:08.395Z,5.97
2019-04-16T20:54:44.096Z,5.77
2019-04-16T20:57:13.022Z,4.90
2019-04-16T20:59:42.700Z,5.70
2019-04-16T21:02:14.875Z,5.23
2019-04-16T21:04:44.424Z,4.93
2019-04-16T21:07:15.334Z,4.90
2019-04-16T21:09:46.364Z,5.60
2019-04-16T21:12:17.868Z,5.63
2019-04-16T21:14:50.858Z,5.13
2019-04-16T21:17:21.085Z,5.33
2019-04-16T21:19:50.826Z,5.73
2019-04-16T21:22:24.885Z,5.50
2019-04-16T21:24:53.104Z,5.37
2019-04-16T21:27:24.323Z,5.70
2019-04-16T21:29:53.679Z,4.97
2019-04-16T21:32:54.611Z,5.63
2019-04-16T21:35:32.068Z,5.87
2019-04-16T21:38:12.791Z,5.40
2019-04-16T21:40:43.883Z,5.67
2019-04-16T21:43:13.592Z,5.30
2019-04-16T21:45:45.570Z,5.27
2019-04-16T21:48:14.240Z,5.30
2019-04-16T21:50:44.596Z,5.10
2019-04-16T21:53:14.686Z,5.40
2019-04-16T21:55:43.975Z,5.70
2019-04-16T21:58:17.180Z,5.27
2019-04-16T22:01:14.836Z,5.70
2019-04-16T22:03:51.584Z,5.50
2019-04-16T22:06:21.064Z,5.30
2019-04-16T22:08:50.384Z,4.63
2019-04-16T22:11:19.753Z,5.00
2019-04-16T22:13:50.712Z,5.93
2019-04-16T22:16:20.651Z,5.53
2019-04-16T22:18:49.911Z,5.30
2019-04-16T22:21:19.241Z,5.33
2019-04-16T22:23:50.424Z,5.17
2019-04-16T22:26:19.604Z,5.10
2019-04-16T22:28:49.011Z,5.67
2019-04-16T22:31:20.796Z,5.03
2019-04-16T22:33:49.325Z,5.57
2019-04-16T22:36:18.589Z,5.77
2019-04-16T22:38:51.121Z,5.33
2019-04-16T22:41:29.246Z,5.43
2019-04-16T22:44:20.280Z,5.97
2019-04-16T22:47:03.985Z,6.17
2019-04-16T22:49:34.734Z,5.60
2019-04-16T22:52:04.018Z,5.70
2019-04-16T22:54:33.351Z,5.50
2019-04-16T22:57:11.042Z,5.00
2019-04-16T22:59:40.390Z,5.57
2019-04-16T23:02:16.761Z,5.83
2019-04-16T23:04:46.265Z,5.77
2019-04-16T23:07:15.566Z,5.30
2019-04-16T23:09:45.719Z,5.20
2019-04-16T23:12:15.925Z,5.90
2019-04-16T23:14:45.206Z,5.53
2019-04-16T23:17:14.530Z,5.57
2019-04-16T23:19:43.806Z,5.23
2019-04-16T23:22:15.433Z,5.17
2019-04-16T23:24:44.768Z,6.33
2019-04-16T23:27:14.066Z,5.97
2019-04-16T23:29:47.293Z,5.10
2019-04-16T23:32:14.373Z,5.90
2019-04-16T23:34:43.653Z,5.53
2019-04-16T23:37:12.962Z,5.47
2019-04-16T23:39:42.303Z,5.63
2019-04-16T23:42:11.672Z,5.30
2019-04-16T23:44:54.713Z,6.30
2019-04-16T23:47:46.610Z,5.20
2019-04-16T23:50:44.355Z,5.83
2019-04-16T23:53:09.008Z,5.40
2019-04-16T23:56:10.027Z,5.23
2019-04-16T23:58:45.199Z,5.77
